Time;durP1;ratioP1;P1;durP2;ratioP2;P2;SDS_P1;SDS_P2;PMS_P1;PMS_P2;Temp;Humidity;BMP_temperature;BMP_pressure;BME280_temperature;BME280_humidity;BME280_pressure;Samples;Min_cycle;Max_cycle;Signal;HPM_P1;HPM_P2
2021/05/22 00:00:23;;;;;;;;;;;10.60;99.90;;;;;;5119434;28;20318;-80
2021/05/22 00:02:48;;;;;;;;;;;10.60;99.90;;;;;;5116205;28;20003;-80
2021/05/22 00:05:15;;;;;;;;;;;10.50;99.90;;;;;;5116123;28;20517;-80
2021/05/22 00:07:40;;;;;;;;;;;10.40;99.90;;;;;;5116181;28;20353;-80
2021/05/22 00:10:10;;;;;;;;;;;10.30;99.90;;;;;;5116120;28;19910;-80
2021/05/22 00:12:36;;;;;;;;;;;10.40;99.90;;;;;;5115740;28;19964;-80
2021/05/22 00:15:02;;;;;;;;;;;10.30;99.90;;;;;;5116058;28;19994;-81
2021/05/22 00:17:28;;;;;;;;;;;10.30;99.90;;;;;;5115877;28;19908;-82
2021/05/22 00:19:54;;;;;;;;;;;10.30;99.90;;;;;;5115857;28;19938;-82
2021/05/22 00:22:19;;;;;;;;;;;10.20;99.90;;;;;;5115418;28;19919;-80
2021/05/22 00:24:45;;;;;;;;;;;10.30;99.90;;;;;;5115505;28;19904;-80
2021/05/22 00:27:11;;;;;;;;;;;10.30;99.90;;;;;;5115830;28;19908;-80
2021/05/22 00:29:36;;;;;;;;;;;10.20;99.90;;;;;;5115935;28;19953;-81
2021/05/22 00:32:02;;;;;;;;;;;10.30;99.90;;;;;;5115724;28;19904;-81
2021/05/22 00:34:28;;;;;;;;;;;10.20;99.90;;;;;;5116271;28;20433;-82
2021/05/22 00:36:53;;;;;;;;;;;10.10;99.90;;;;;;5118694;28;19903;-80
2021/05/22 00:39:19;;;;;;;;;;;10.10;99.90;;;;;;5116220;28;19907;-82
2021/05/22 00:41:47;;;;;;;;;;;10.00;99.90;;;;;;5115424;28;20356;-80
2021/05/22 00:44:12;;;;;;;;;;;10.00;99.90;;;;;;5115353;28;19907;-81
2021/05/22 00:46:38;;;;;;;;;;;10.00;99.90;;;;;;5115042;28;19911;-81
2021/05/22 00:49:04;;;;;;;;;;;10.00;99.90;;;;;;5115138;28;20353;-80
2021/05/22 00:51:29;;;;;;;;;;;10.00;99.90;;;;;;5117758;28;19949;-82
2021/05/22 00:53:55;;;;;;;;;;;9.90;99.90;;;;;;5120448;28;19911;-83
2021/05/22 00:56:21;;;;;;;;;;;9.90;99.90;;;;;;5127127;28;19978;-83
2021/05/22 00:58:46;;;;;;;;;;;9.90;99.90;;;;;;5131343;28;19911;-82
2021/05/22 01:01:12;;;;;;;;;;;9.90;99.90;;;;;;5128442;28;19919;-82
2021/05/22 01:03:49;;;;;;;;;;;9.90;99.90;;;;;;5123461;28;19907;-82
2021/05/22 01:06:19;;;;;;;;;;;10.00;99.90;;;;;;5116888;28;19960;-81
2021/05/22 01:08:48;;;;;;;;;;;9.90;99.90;;;;;;5115300;28;19949;-81
2021/05/22 01:11:27;;;;;;;;;;;9.90;99.90;;;;;;5114657;28;19904;-81
2021/05/22 01:13:56;;;;;;;;;;;9.90;99.90;;;;;;5114024;28;19903;-81
2021/05/22 01:16:22;;;;;;;;;;;9.90;99.90;;;;;;5114384;28;19903;-81
2021/05/22 01:18:48;;;;;;;;;;;9.90;99.90;;;;;;5114676;28;20277;-80
2021/05/22 01:21:14;;;;;;;;;;;9.80;99.90;;;;;;5114806;28;19960;-81
2021/05/22 01:23:41;;;;;;;;;;;9.90;99.90;;;;;;5114544;28;19903;-81
2021/05/22 01:26:08;;;;;;;;;;;9.90;99.90;;;;;;5114279;28;19912;-80
2021/05/22 01:28:35;;;;;;;;;;;9.80;99.90;;;;;;5114238;28;20420;-79
2021/05/22 01:31:01;;;;;;;;;;;9.80;99.90;;;;;;5113972;28;19990;-81
2021/05/22 01:33:27;;;;;;;;;;;9.70;99.90;;;;;;5114156;28;19908;-81
2021/05/22 01:35:52;;;;;;;;;;;9.70;99.90;;;;;;5114166;28;19908;-81
2021/05/22 01:38:18;;;;;;;;;;;9.70;99.90;;;;;;5114178;28;19907;-81
2021/05/22 01:40:45;;;;;;;;;;;9.60;99.90;;;;;;5113991;28;20438;-81
2021/05/22 01:43:11;;;;;;;;;;;9.60;99.90;;;;;;5114168;28;19908;-81
2021/05/22 01:45:40;;;;;;;;;;;9.60;99.90;;;;;;5113792;28;19904;-81
2021/05/22 01:48:06;;;;;;;;;;;9.60;99.90;;;;;;5113586;28;19939;-82
2021/05/22 01:50:34;;;;;;;;;;;9.50;99.90;;;;;;5113738;28;20475;-81
2021/05/22 01:53:01;;;;;;;;;;;9.50;99.90;;;;;;5113713;28;20392;-81
2021/05/22 01:55:27;;;;;;;;;;;9.50;99.90;;;;;;5114947;28;19904;-81
2021/05/22 01:57:53;;;;;;;;;;;9.40;99.90;;;;;;5113565;28;19948;-81
2021/05/22 02:00:19;;;;;;;;;;;9.30;99.90;;;;;;5113647;28;19908;-81
2021/05/22 02:02:47;;;;;;;;;;;9.20;99.90;;;;;;5113351;28;19911;-81
2021/05/22 02:05:15;;;;;;;;;;;9.20;99.90;;;;;;5113430;28;19913;-81
2021/05/22 02:07:41;;;;;;;;;;;9.10;99.90;;;;;;5113160;28;19914;-81
2021/05/22 02:10:07;;;;;;;;;;;9.10;99.90;;;;;;5113188;28;19994;-81
2021/05/22 02:12:33;;;;;;;;;;;9.00;99.90;;;;;;5113219;28;19955;-81
2021/05/22 02:15:00;;;;;;;;;;;9.10;99.90;;;;;;5113262;28;19958;-80
2021/05/22 02:17:27;;;;;;;;;;;9.10;99.90;;;;;;5113138;28;19949;-81
2021/05/22 02:19:53;;;;;;;;;;;9.10;99.90;;;;;;5113153;28;19908;-81
2021/05/22 02:22:21;;;;;;;;;;;9.00;99.90;;;;;;5113238;28;19915;-80
2021/05/22 02:24:48;;;;;;;;;;;9.00;99.90;;;;;;5112809;28;19904;-81
2021/05/22 02:27:13;;;;;;;;;;;9.00;99.90;;;;;;5112954;28;20327;-81
2021/05/22 02:29:40;;;;;;;;;;;9.00;99.90;;;;;;5112932;28;19928;-81
2021/05/22 02:32:06;;;;;;;;;;;9.00;99.90;;;;;;5112808;28;19904;-81
2021/05/22 02:34:37;;;;;;;;;;;8.90;99.90;;;;;;5112844;28;20339;-81
2021/05/22 02:37:03;;;;;;;;;;;8.90;99.90;;;;;;5112828;28;19911;-81
2021/05/22 02:39:29;;;;;;;;;;;9.00;99.90;;;;;;5112880;28;19956;-81
2021/05/22 02:41:58;;;;;;;;;;;9.00;99.90;;;;;;5113930;28;19998;-81
2021/05/22 02:44:25;;;;;;;;;;;9.00;99.90;;;;;;5112864;28;20352;-81
2021/05/22 02:46:51;;;;;;;;;;;9.10;99.90;;;;;;5113104;28;20330;-81
2021/05/22 02:49:18;;;;;;;;;;;9.20;99.90;;;;;;5112973;28;19904;-81
2021/05/22 02:51:45;;;;;;;;;;;9.20;99.90;;;;;;5112710;28;19990;-80
2021/05/22 02:54:11;;;;;;;;;;;9.10;99.90;;;;;;5112667;28;20006;-81
2021/05/22 02:56:37;;;;;;;;;;;9.10;99.90;;;;;;5113043;28;19958;-80
2021/05/22 02:59:03;;;;;;;;;;;9.00;99.90;;;;;;5112365;28;19941;-81
2021/05/22 03:01:30;;;;;;;;;;;9.00;99.90;;;;;;5112775;28;19921;-81
2021/05/22 03:03:57;;;;;;;;;;;9.00;99.90;;;;;;5112557;28;20285;-81
2021/05/22 03:06:23;;;;;;;;;;;8.90;99.90;;;;;;5112836;28;19914;-81
2021/05/22 03:08:49;;;;;;;;;;;8.80;99.90;;;;;;5112497;28;19908;-81
2021/05/22 03:11:16;;;;;;;;;;;8.70;99.90;;;;;;5112462;28;19911;-80
2021/05/22 03:13:42;;;;;;;;;;;8.70;99.90;;;;;;5112449;28;19911;-81
2021/05/22 03:16:07;;;;;;;;;;;8.70;99.90;;;;;;5112493;28;19903;-80
2021/05/22 03:18:33;;;;;;;;;;;8.70;99.90;;;;;;5112335;28;19950;-81
2021/05/22 03:20:59;;;;;;;;;;;8.60;99.90;;;;;;5112451;28;19911;-81
2021/05/22 03:23:24;;;;;;;;;;;8.60;99.90;;;;;;5112551;28;19904;-81
2021/05/22 03:25:50;;;;;;;;;;;8.50;99.90;;;;;;5112552;28;20010;-81
2021/05/22 03:28:15;;;;;;;;;;;8.50;99.90;;;;;;5112367;28;19915;-81
2021/05/22 03:30:41;;;;;;;;;;;8.60;99.90;;;;;;5112587;28;19926;-80
2021/05/22 03:33:07;;;;;;;;;;;8.60;99.90;;;;;;5112246;28;20272;-81
2021/05/22 03:35:32;;;;;;;;;;;8.60;99.90;;;;;;5112222;28;19907;-81
2021/05/22 03:37:58;;;;;;;;;;;8.70;99.90;;;;;;5113864;28;19912;-80
2021/05/22 03:40:23;;;;;;;;;;;8.70;99.90;;;;;;5116557;28;19910;-80
2021/05/22 03:42:49;;;;;;;;;;;8.70;99.90;;;;;;5115748;28;19903;-81
2021/05/22 03:45:15;;;;;;;;;;;8.80;99.90;;;;;;5116042;28;19986;-80
2021/05/22 03:47:40;;;;;;;;;;;8.80;99.90;;;;;;5115849;28;19911;-81
2021/05/22 03:50:06;;;;;;;;;;;8.70;99.90;;;;;;5115975;28;19949;-81
2021/05/22 03:52:32;;;;;;;;;;;8.70;99.90;;;;;;5115711;28;19904;-81
2021/05/22 03:54:57;;;;;;;;;;;8.70;99.90;;;;;;5115866;28;20402;-80
2021/05/22 03:57:23;;;;;;;;;;;8.70;99.90;;;;;;5115612;28;19904;-81
2021/05/22 03:59:49;;;;;;;;;;;8.70;99.90;;;;;;5115753;28;19903;-80
2021/05/22 04:02:14;;;;;;;;;;;8.70;99.90;;;;;;5115551;28;19927;-80
2021/05/22 04:04:40;;;;;;;;;;;8.70;99.90;;;;;;5115348;28;20037;-80
2021/05/22 04:07:05;;;;;;;;;;;8.70;99.90;;;;;;5115462;28;20384;-80
2021/05/22 04:09:31;;;;;;;;;;;8.80;99.90;;;;;;5115598;28;19962;-81
2021/05/22 04:11:56;;;;;;;;;;;8.70;99.90;;;;;;5115696;28;19904;-80
2021/05/22 04:14:22;;;;;;;;;;;8.80;99.90;;;;;;5116656;28;19986;-81
2021/05/22 04:16:48;;;;;;;;;;;8.80;99.90;;;;;;5115316;28;20488;-80
2021/05/22 04:19:14;;;;;;;;;;;8.80;99.90;;;;;;5115293;28;19906;-80
2021/05/22 04:21:39;;;;;;;;;;;8.80;99.90;;;;;;5115190;28;20284;-80
2021/05/22 04:24:05;;;;;;;;;;;8.90;99.90;;;;;;5115200;28;19938;-80
2021/05/22 04:26:31;;;;;;;;;;;8.90;99.90;;;;;;5115104;28;19918;-80
2021/05/22 04:28:56;;;;;;;;;;;8.90;99.90;;;;;;5114906;28;20411;-80
2021/05/22 04:31:22;;;;;;;;;;;8.90;99.90;;;;;;5116070;28;19904;-81
2021/05/22 04:33:47;;;;;;;;;;;9.00;99.90;;;;;;5114680;28;19904;-80
2021/05/22 04:36:13;;;;;;;;;;;9.00;99.90;;;;;;5115027;28;19904;-80
2021/05/22 04:38:39;;;;;;;;;;;9.20;99.90;;;;;;5115143;28;19920;-80
2021/05/22 04:41:05;;;;;;;;;;;9.20;99.90;;;;;;5115044;28;19910;-81
2021/05/22 04:43:31;;;;;;;;;;;9.30;99.90;;;;;;5114886;28;20416;-81
2021/05/22 04:45:56;;;;;;;;;;;9.40;99.90;;;;;;5114759;28;20280;-81
2021/05/22 04:48:22;;;;;;;;;;;9.60;99.90;;;;;;5113221;28;19947;-81
2021/05/22 04:50:48;;;;;;;;;;;9.80;99.90;;;;;;5113831;28;19904;-81
2021/05/22 04:53:13;;;;;;;;;;;10.10;99.90;;;;;;5114368;28;20353;-81
2021/05/22 04:55:39;;;;;;;;;;;10.40;99.90;;;;;;5113205;28;20368;-81
2021/05/22 04:58:05;;;;;;;;;;;10.30;99.90;;;;;;5114186;28;19956;-80
2021/05/22 05:00:30;;;;;;;;;;;10.40;99.90;;;;;;5113401;28;19931;-81
2021/05/22 05:02:56;;;;;;;;;;;10.40;99.90;;;;;;5113506;28;19950;-81
2021/05/22 05:05:22;;;;;;;;;;;10.60;99.90;;;;;;5113443;28;19965;-81
2021/05/22 05:07:47;;;;;;;;;;;10.70;99.90;;;;;;5113364;28;20340;-81
2021/05/22 05:10:15;;;;;;;;;;;11.00;99.90;;;;;;5112922;28;19908;-80
2021/05/22 05:12:40;;;;;;;;;;;11.10;99.90;;;;;;5113361;28;19951;-80
2021/05/22 05:15:07;;;;;;;;;;;11.20;99.90;;;;;;5113086;28;19907;-81
2021/05/22 05:17:32;;;;;;;;;;;11.40;99.90;;;;;;5112208;28;20441;-80
2021/05/22 05:19:58;;;;;;;;;;;11.40;99.90;;;;;;5113287;28;19924;-80
2021/05/22 05:22:24;;;;;;;;;;;11.50;99.90;;;;;;5113264;28;19965;-80
2021/05/22 05:24:50;;;;;;;;;;;11.60;99.90;;;;;;5113710;28;19927;-80
2021/05/22 05:27:15;;;;;;;;;;;11.90;99.90;;;;;;5113269;28;20376;-80
2021/05/22 05:29:41;;;;;;;;;;;12.50;99.90;;;;;;5113608;28;19904;-80
2021/05/22 05:32:09;;;;;;;;;;;13.30;99.90;;;;;;5113421;28;19904;-80
2021/05/22 05:34:34;;;;;;;;;;;15.40;99.90;;;;;;5111851;28;19951;-81
2021/05/22 05:37:00;;;;;;;0.40;0.40;;;16.30;99.90;;;;;;5113236;28;19951;-81
2021/05/22 05:39:26;;;;;;;;;;;15.60;99.90;;;;;;5113467;28;20059;-81
2021/05/22 05:41:52;;;;;;;;;;;16.70;99.90;;;;;;5111365;28;19903;-81
2021/05/22 05:44:17;;;;;;;;;;;17.50;99.90;;;;;;5110383;28;19904;-82
2021/05/22 05:46:43;;;;;;;;;;;18.30;99.90;;;;;;5109977;28;19998;-79
2021/05/22 05:49:08;;;;;;;;;;;17.40;99.90;;;;;;5110307;28;19912;-79
2021/05/22 05:51:34;;;;;;;;;;;16.90;99.90;;;;;;5110807;28;20269;-82
2021/05/22 05:54:00;;;;;;;;;;;17.70;99.90;;;;;;5110374;28;19904;-82
2021/05/22 05:56:26;;;;;;;;;;;16.50;99.90;;;;;;5110709;28;20317;-79
2021/05/22 06:01:54;;;;;;;;;;;15.00;99.90;;;;;;5111949;28;20034;-80
2021/05/22 06:04:20;;;;;;;;;;;16.40;99.90;;;;;;5112319;28;20043;-79
2021/05/22 06:06:45;;;;;;;;;;;17.00;99.90;;;;;;5110918;28;20277;-79
2021/05/22 06:09:11;;;;;;;;;;;17.00;99.90;;;;;;5110851;28;20361;-81
2021/05/22 06:11:37;;;;;;;;;;;16.00;99.90;;;;;;5112655;28;20479;-81
2021/05/22 06:14:05;;;;;;;;;;;15.50;99.90;;;;;;5110705;28;20033;-82
2021/05/22 06:16:34;;;;;;;;;;;17.30;99.90;;;;;;5110939;28;20284;-82
2021/05/22 06:19:00;;;;;;;;;;;16.60;99.90;;;;;;5111154;28;20118;-81
2021/05/22 06:21:25;;;;;;;;;;;15.80;99.90;;;;;;5112164;28;19947;-82
2021/05/22 06:23:51;;;;;;;;;;;14.80;99.90;;;;;;5112236;28;19904;-82
2021/05/22 06:26:17;;;;;;;;;;;14.60;99.90;;;;;;5112453;28;24097;-80
2021/05/22 06:28:42;;;;;;;;;;;15.50;99.90;;;;;;5112318;28;19935;-81
2021/05/22 06:31:08;;;;;;;0.55;0.45;;;14.80;99.90;;;;;;5113571;28;20365;-82
2021/05/22 06:33:34;;;;;;;;;;;14.20;99.90;;;;;;5113499;28;20027;-80
2021/05/22 06:36:01;;;;;;;;;;;15.20;99.90;;;;;;5114544;28;19904;-80
2021/05/22 06:38:27;;;;;;;;;;;15.70;99.90;;;;;;5113400;28;19935;-82
2021/05/22 06:40:52;;;;;;;;;;;17.30;99.90;;;;;;5094146;28;19914;-82
2021/05/22 06:43:18;;;;;;;;;;;17.60;99.90;;;;;;5111152;28;19914;-83
2021/05/22 06:45:46;;;;;;;2.35;0.93;;;18.60;99.90;;;;;;5110429;28;19904;-83
2021/05/22 06:48:14;;;;;;;1.15;0.40;;;19.60;99.90;;;;;;5110554;28;20030;-82
2021/05/22 06:50:39;;;;;;;;;;;18.90;99.90;;;;;;5111259;28;20024;-82
2021/05/22 06:53:05;;;;;;;;;;;20.10;99.90;;;;;;5110784;28;19939;-82
2021/05/22 06:55:31;;;;;;;;;;;21.30;99.90;;;;;;5110910;28;19908;-81
2021/05/22 06:57:57;;;;;;;2.88;0.70;;;21.10;99.90;;;;;;5110299;28;19904;-83
2021/05/22 07:00:23;;;;;;;1.83;0.82;;;19.60;99.90;;;;;;5110274;28;20076;-80
2021/05/22 07:02:49;;;;;;;;;;;18.50;99.90;;;;;;5110388;28;20034;-83
2021/05/22 07:05:15;;;;;;;;;;;17.20;99.90;;;;;;5110108;28;20023;-83
2021/05/22 07:07:42;;;;;;;;;;;16.60;99.90;;;;;;5110660;28;20360;-84
2021/05/22 07:10:13;;;;;;;5.70;0.80;;;16.70;99.90;;;;;;5110704;28;19911;-83
2021/05/22 07:12:39;;;;;;;0.98;0.50;;;16.50;99.90;;;;;;5113684;28;20542;-84
2021/05/22 07:15:05;;;;;;;;;;;16.90;99.90;;;;;;5114599;28;20026;-84
2021/05/22 07:17:30;;;;;;;;;;;18.50;99.90;;;;;;5115675;28;19957;-82
2021/05/22 07:19:56;;;;;;;;;;;17.30;99.90;;;;;;5118085;28;19904;-82
2021/05/22 07:22:22;;;;;;;;;;;16.30;99.90;;;;;;5125355;28;19912;-81
2021/05/22 07:24:48;;;;;;;;;;;15.60;99.90;;;;;;5129437;28;19923;-83
2021/05/22 07:27:15;;;;;;;;;;;16.80;99.90;;;;;;5115384;28;19942;-82
2021/05/22 07:29:40;;;;;;;;;;;18.30;99.90;;;;;;5114743;28;20070;-84
2021/05/22 07:32:06;;;;;;;1.13;0.60;;;18.70;99.90;;;;;;5114470;28;19903;-82
2021/05/22 07:34:33;;;;;;;2.72;0.63;;;18.70;99.90;;;;;;5118326;28;20026;-82
2021/05/22 07:36:58;;;;;;;;;;;17.30;99.90;;;;;;5125982;28;20540;-81
2021/05/22 07:39:24;;;;;;;;;;;16.20;99.90;;;;;;5125419;28;19986;-81
2021/05/22 07:41:50;;;;;;;3.05;0.60;;;15.70;99.90;;;;;;5126360;28;19963;-83
2021/05/22 07:44:16;;;;;;;2.70;0.85;;;17.40;99.90;;;;;;5121382;28;20067;-82
2021/05/22 07:46:42;;;;;;;1.20;0.38;;;17.60;99.90;;;;;;5128473;28;20028;-82
2021/05/22 07:49:08;;;;;;;6.80;0.70;;;17.50;99.90;;;;;;5127100;28;20020;-82
2021/05/22 07:51:34;;;;;;;7.93;0.68;;;16.70;99.90;;;;;;5124157;28;20016;-82
2021/05/22 07:53:59;;;;;;;;;;;17.00;99.90;;;;;;5114484;28;20016;-81
2021/05/22 07:56:25;;;;;;;3.20;0.50;;;16.90;99.90;;;;;;5113167;28;20107;-81
2021/05/22 07:58:51;;;;;;;3.60;0.88;;;16.00;99.90;;;;;;5116144;28;20030;-82
2021/05/22 08:01:17;;;;;;;2.65;0.60;;;15.30;99.90;;;;;;5117456;28;20051;-81
2021/05/22 08:03:42;;;;;;;4.82;0.82;;;15.90;99.90;;;;;;5126783;28;20023;-82
2021/05/22 08:06:08;;;;;;;;;;;18.50;99.90;;;;;;5115498;28;20471;-81
2021/05/22 08:08:33;;;;;;;;;;;20.70;99.20;;;;;;5130009;27;19904;-83
2021/05/22 08:10:59;;;;;;;;;;;22.40;93.30;;;;;;5130485;27;19943;-82
2021/05/22 08:13:29;;;;;;;;;;;22.00;91.60;;;;;;5130429;27;19903;-82
2021/05/22 08:15:56;;;;;;;1.42;0.50;;;23.80;79.70;;;;;;5130153;27;19908;-83
2021/05/22 08:18:21;;;;;;;;;;;23.50;79.50;;;;;;5112855;28;20059;-82
2021/05/22 08:20:47;;;;;;;2.33;0.67;;;23.10;77.60;;;;;;5129584;27;19954;-84
2021/05/22 08:23:13;;;;;;;;;;;20.80;78.70;;;;;;5109777;28;20039;-84
2021/05/22 08:25:38;;;;;;;;;;;20.80;85.90;;;;;;5103318;28;19915;-84
2021/05/22 08:28:04;;;;;;;2.33;0.70;;;20.70;81.30;;;;;;5103205;28;19964;-83
2021/05/22 08:30:30;;;;;;;1.98;0.70;;;22.30;80.50;;;;;;5103823;28;20092;-83
2021/05/22 08:32:56;;;;;;;1.52;0.38;;;22.40;76.70;;;;;;5112719;28;20080;-83
2021/05/22 08:35:22;;;;;;;;;;;22.80;72.10;;;;;;5113398;28;20046;-83
2021/05/22 08:37:47;;;;;;;;;;;23.30;75.10;;;;;;5130306;27;20004;-84
2021/05/22 08:40:13;;;;;;;;;;;20.90;75.00;;;;;;5129642;27;19989;-83
2021/05/22 08:42:38;;;;;;;;;;;20.10;80.70;;;;;;5112238;28;19914;-82
2021/05/22 08:45:04;;;;;;;;;;;20.00;83.60;;;;;;5129783;27;19907;-82
2021/05/22 08:47:29;;;;;;;;;;;21.10;82.40;;;;;;5112843;28;19923;-84
2021/05/22 08:49:55;;;;;;;;;;;21.00;76.80;;;;;;5130111;27;20364;-83
2021/05/22 08:52:22;;;;;;;;;;;21.10;74.10;;;;;;5130282;27;19943;-83
2021/05/22 08:54:48;;;;;;;;;;;21.40;75.80;;;;;;5112650;28;19930;-84
2021/05/22 08:57:14;;;;;;;;;;;22.90;73.90;;;;;;5112555;28;19967;-83
2021/05/22 08:59:43;;;;;;;;;;;23.70;67.10;;;;;;5129787;27;19990;-82
2021/05/22 09:02:09;;;;;;;;;;;21.90;70.20;;;;;;5113060;28;19908;-84
2021/05/22 09:04:54;;;;;;;;;;;22.00;73.50;;;;;;5112506;28;20349;-84
2021/05/22 09:07:22;;;;;;;;;;;24.10;70.30;;;;;;5113149;28;19951;-81
2021/05/22 09:09:47;;;;;;;;;;;24.70;67.80;;;;;;5112146;28;19910;-82
2021/05/22 09:12:13;;;;;;;;;;;24.60;63.80;;;;;;5129565;27;20331;-84
2021/05/22 09:14:48;;;;;;;3.20;0.60;;;23.90;64.30;;;;;;5129641;27;19908;-83
2021/05/22 09:17:14;;;;;;;;;;;24.30;61.90;;;;;;5112461;28;20024;-84
2021/05/22 09:19:40;;;;;;;;;;;24.20;61.50;;;;;;5112394;28;19939;-83
2021/05/22 09:22:20;;;;;;;;;;;24.90;61.40;;;;;;5112395;28;19970;-82
2021/05/22 09:25:03;;;;;;;;;;;23.70;61.90;;;;;;5112422;28;19939;-83
2021/05/22 09:27:37;;;;;;;2.10;0.22;;;23.40;67.10;;;;;;5112097;28;19914;-84
2021/05/22 09:30:04;;;;;;;4.30;0.43;;;24.50;62.20;;;;;;5111952;28;20473;-84
2021/05/22 09:32:30;;;;;;;0.50;0.20;;;23.80;63.10;;;;;;5111815;28;20449;-84
2021/05/22 09:34:55;;;;;;;;;;;24.20;62.10;;;;;;5111904;28;19947;-83
2021/05/22 09:37:22;;;;;;;;;;;23.40;61.70;;;;;;5129157;27;20126;-81
2021/05/22 09:39:49;;;;;;;;;;;22.40;64.90;;;;;;5129046;27;20280;-84
2021/05/22 09:42:14;;;;;;;;;;;20.50;66.10;;;;;;5112519;28;20002;-84
2021/05/22 09:44:40;;;;;;;;;;;19.40;70.00;;;;;;5111995;28;19946;-82
2021/05/22 09:47:07;;;;;;;;;;;18.70;73.20;;;;;;5129144;27;19914;-82
2021/05/22 09:49:34;;;;;;;;;;;18.40;70.60;;;;;;5128669;27;20378;-83
2021/05/22 09:52:04;;;;;;;;;;;18.10;75.60;;;;;;5112124;28;20010;-83
2021/05/22 09:54:49;;;;;;;;;;;17.80;77.50;;;;;;5111685;28;19911;-83
2021/05/22 09:57:35;;;;;;;;;;;17.70;78.50;;;;;;5112031;28;19948;-84
2021/05/22 10:00:17;;;;;;;;;;;17.60;77.10;;;;;;5111367;28;19910;-83
2021/05/22 10:02:43;;;;;;;;;;;17.80;79.60;;;;;;5111953;28;19904;-83
2021/05/22 10:05:11;;;;;;;;;;;18.00;79.50;;;;;;5111792;28;20288;-82
2021/05/22 10:07:37;;;;;;;;;;;18.00;79.30;;;;;;5111797;28;19908;-82
2021/05/22 10:10:03;;;;;;;;;;;19.30;78.10;;;;;;5128094;27;19948;-83
2021/05/22 10:12:28;;;;;;;;;;;19.70;75.70;;;;;;5111532;28;19908;-85
2021/05/22 10:14:54;;;;;;;;;;;19.30;76.80;;;;;;5128752;27;19920;-85
2021/05/22 10:17:19;;;;;;;;;;;19.30;77.70;;;;;;5128727;27;19904;-85
2021/05/22 10:19:45;;;;;;;;;;;18.80;74.50;;;;;;5128214;27;19903;-82
2021/05/22 10:22:11;;;;;;;;;;;18.70;73.70;;;;;;5111286;28;19911;-83
2021/05/22 10:24:37;;;;;;;;;;;18.50;75.10;;;;;;5128378;27;19990;-81
2021/05/22 10:27:03;;;;;;;;;;;18.10;74.60;;;;;;5111237;28;19942;-84
2021/05/22 10:29:33;;;;;;;;;;;18.10;76.40;;;;;;5127837;27;20404;-82
2021/05/22 10:31:58;;;;;;;;;;;18.00;74.90;;;;;;5128946;27;19904;-84
2021/05/22 10:34:25;;;;;;;;;;;17.90;75.80;;;;;;5128644;27;19972;-82
2021/05/22 10:36:51;;;;;;;;;;;17.70;77.00;;;;;;5114764;28;19904;-85
2021/05/22 10:39:41;;;;;;;1.73;0.40;;;17.90;78.70;;;;;;5110322;28;19907;-84
2021/05/22 10:42:22;;;;;;;2.38;0.98;;;20.50;69.60;;;;;;5111057;28;20028;-82
2021/05/22 10:44:48;;;;;;;;;;;21.10;74.00;;;;;;5110921;28;20030;-86
2021/05/22 10:47:17;;;;;;;;;;;23.00;69.60;;;;;;5110674;28;20280;-84
2021/05/22 10:49:51;;;;;;;;;;;24.10;62.50;;;;;;5110950;28;20010;-84
2021/05/22 10:52:17;;;;;;;;;;;24.90;63.80;;;;;;5111496;28;19903;-81
2021/05/22 10:55:01;;;;;;;;;;;24.00;59.70;;;;;;5110799;28;19904;-83
2021/05/22 10:57:28;;;;;;;0.60;0.60;;;21.80;64.20;;;;;;5110697;28;20360;-83
2021/05/22 11:00:13;;;;;;;;;;;20.80;68.80;;;;;;5110773;28;20043;-83
2021/05/22 11:02:39;;;;;;;;;;;19.90;70.10;;;;;;5110323;28;19904;-84
2021/05/22 11:05:25;;;;;;;;;;;19.50;71.80;;;;;;5110305;28;19904;-83
2021/05/22 11:08:08;;;;;;;;;;;19.40;69.60;;;;;;5111768;28;19947;-84
2021/05/22 11:10:45;;;;;;;;;;;19.10;69.10;;;;;;5110894;28;19952;-84
2021/05/22 11:13:23;;;;;;;;;;;19.20;70.40;;;;;;5111310;28;19927;-85
2021/05/22 11:15:55;;;;;;;;;;;19.70;72.80;;;;;;5109549;28;19903;-85
2021/05/22 11:18:21;;;;;;;;;;;19.80;71.30;;;;;;5101902;28;19940;-81
2021/05/22 11:21:14;;;;;;;0.63;0.50;;;20.90;69.70;;;;;;5100635;28;19907;-84
2021/05/22 11:24:01;;;;;;;2.10;0.45;;;21.50;68.50;;;;;;5101048;28;20072;-82
2021/05/22 11:26:56;;;;;;;1.95;0.45;;;21.70;67.80;;;;;;5098046;28;20278;-83
2021/05/22 11:29:43;;;;;;;1.35;0.57;;;20.80;69.30;;;;;;5104966;28;20028;-82
2021/05/22 11:32:51;;;;;;;0.73;0.30;;;21.00;71.50;;;;;;5110565;28;20512;-85
2021/05/22 11:35:32;;;;;;;2.47;0.90;;;20.10;71.10;;;;;;5110393;28;20107;-83
2021/05/22 11:38:18;;;;;;;1.20;0.25;;;20.20;70.60;;;;;;5110250;28;20030;-85
2021/05/22 11:40:44;;;;;;;0.50;0.20;;;20.30;70.30;;;;;;5109930;28;20036;-83
2021/05/22 11:43:12;;;;;;;;;;;20.10;69.80;;;;;;5110843;28;20032;-84
2021/05/22 11:45:38;;;;;;;;;;;19.60;68.40;;;;;;5110726;28;19903;-84
2021/05/22 11:48:23;;;;;;;;;;;19.40;70.10;;;;;;5110197;28;19907;-84
2021/05/22 11:50:48;;;;;;;;;;;20.20;74.80;;;;;;5110088;28;19903;-84
2021/05/22 11:53:17;;;;;;;;;;;20.70;69.30;;;;;;5109823;28;20387;-83
2021/05/22 11:56:03;;;;;;;;;;;21.00;68.70;;;;;;5109979;28;19904;-83
2021/05/22 11:58:29;;;;;;;;;;;20.80;71.40;;;;;;5110175;28;20276;-82
2021/05/22 12:01:05;;;;;;;;;;;21.20;71.00;;;;;;5114762;28;20006;-81
2021/05/22 12:03:30;;;;;;;;;;;21.40;69.90;;;;;;5113519;28;19903;-82
2021/05/22 12:05:56;;;;;;;;;;;21.10;68.60;;;;;;5131498;27;20018;-82
2021/05/22 12:08:29;;;;;;;;;;;20.70;66.50;;;;;;5130246;27;19907;-86
2021/05/22 12:10:55;;;;;;;;;;;20.40;66.90;;;;;;5114066;28;19953;-83
2021/05/22 12:13:21;;;;;;;;;;;19.90;67.10;;;;;;5131044;27;19919;-84
2021/05/22 12:15:48;;;;;;;;;;;19.70;68.70;;;;;;5113129;28;20262;-83
2021/05/22 12:18:15;;;;;;;;;;;20.50;72.60;;;;;;5113676;28;20438;-83
2021/05/22 12:20:48;;;;;;;;;;;20.70;67.40;;;;;;5130803;27;19933;-84
2021/05/22 12:23:23;;;;;;;;;;;20.60;70.80;;;;;;5112962;28;19911;-83
2021/05/22 12:25:50;;;;;;;;;;;20.90;64.60;;;;;;5114063;28;19910;-83
2021/05/22 12:28:15;;;;;;;;;;;20.80;69.10;;;;;;5114532;28;19908;-83
2021/05/22 12:30:41;;;;;;;;;;;20.90;70.20;;;;;;5113477;28;19903;-84
2021/05/22 12:33:15;;;;;;;;;;;21.00;64.50;;;;;;5131747;27;19907;-82
2021/05/22 12:35:41;;;;;;;;;;;20.80;65.70;;;;;;5114584;28;19903;-84
2021/05/22 12:38:06;;;;;;;;;;;20.90;68.70;;;;;;5130000;27;19969;-83
2021/05/22 12:40:48;;;;;;;;;;;21.10;66.00;;;;;;5130307;27;20307;-83
2021/05/22 12:43:14;;;;;;;;;;;21.00;67.10;;;;;;5113757;28;19963;-84
2021/05/22 12:45:43;;;;;;;;;;;21.30;69.10;;;;;;5112609;28;20292;-81
2021/05/22 12:48:22;;;;;;;;;;;21.40;67.50;;;;;;5129778;27;19914;-82
2021/05/22 12:50:48;;;;;;;;;;;21.40;66.00;;;;;;5113263;28;19947;-84
2021/05/22 12:53:13;;;;;;;;;;;21.20;69.80;;;;;;5127945;27;19942;-85
2021/05/22 12:55:39;;;;;;;;;;;21.00;70.20;;;;;;5102990;28;19954;-83
2021/05/22 12:58:17;;;;;;;;;;;20.90;69.80;;;;;;5120518;27;19907;-84
2021/05/22 13:00:46;;;;;;;;;;;20.90;69.00;;;;;;5102598;28;19927;-83
2021/05/22 13:03:11;;;;;;;;;;;20.70;69.50;;;;;;5106016;28;19908;-84
2021/05/22 13:05:37;;;;;;;;;;;20.40;66.60;;;;;;5131222;27;20036;-85
2021/05/22 13:08:10;;;;;;;;;;;19.80;68.90;;;;;;5131284;27;19908;-83
2021/05/22 13:10:36;;;;;;;;;;;20.00;68.10;;;;;;5113307;28;20268;-85
2021/05/22 13:13:03;;;;;;;;;;;20.30;72.70;;;;;;5113623;28;19992;-85
2021/05/22 13:15:33;;;;;;;;;;;20.50;70.90;;;;;;5114241;28;19922;-84
2021/05/22 13:18:00;;;;;;;;;;;20.70;71.00;;;;;;5114436;28;19925;-84
2021/05/22 13:20:26;;;;;;;;;;;20.80;72.60;;;;;;5114394;28;19915;-84
2021/05/22 13:23:05;;;;;;;;;;;20.00;68.50;;;;;;5115210;28;19916;-84
2021/05/22 13:25:31;;;;;;;;;;;19.40;69.10;;;;;;5114605;28;19919;-84
2021/05/22 13:28:01;;;;;;;;;;;19.70;70.80;;;;;;5114690;28;19968;-84
2021/05/22 13:30:28;;;;;;;;;;;20.20;71.40;;;;;;5114125;28;19904;-84
2021/05/22 13:32:53;;;;;;;;;;;20.30;66.80;;;;;;5115476;28;19910;-85
2021/05/22 13:35:20;;;;;;;;;;;19.90;66.80;;;;;;5132414;27;20348;-84
2021/05/22 13:37:45;;;;;;;;;;;19.50;67.30;;;;;;5115018;28;20021;-83
2021/05/22 13:40:11;;;;;;;;;;;19.20;70.20;;;;;;5123087;27;19947;-85
2021/05/22 13:42:37;;;;;;;;;;;19.20;68.90;;;;;;5104014;28;19915;-84
2021/05/22 13:45:03;;;;;;;;;;;19.40;70.10;;;;;;5119530;27;19908;-85
2021/05/22 13:47:28;;;;;;;;;;;19.30;71.20;;;;;;5115705;28;20156;-83
2021/05/22 13:49:54;;;;;;;;;;;19.60;71.20;;;;;;5115141;28;19943;-85
2021/05/22 13:52:20;;;;;;;;;;;20.30;69.90;;;;;;5117236;28;20275;-84
2021/05/22 13:54:45;;;;;;;;;;;20.70;72.80;;;;;;5118061;28;19907;-85
2021/05/22 13:57:11;;;;;;;;;;;20.70;69.00;;;;;;5108596;28;19908;-85
2021/05/22 13:59:36;;;;;;;;;;;20.90;68.00;;;;;;5124218;27;20276;-84
2021/05/22 14:02:03;;;;;;;;;;;20.40;67.20;;;;;;5121386;27;20418;-83
2021/05/22 14:04:29;;;;;;;;;;;19.70;66.40;;;;;;5114546;28;19908;-82
2021/05/22 14:06:54;;;;;;;;;;;19.70;69.40;;;;;;5125390;27;19919;-83
2021/05/22 14:09:20;;;;;;;;;;;19.20;69.80;;;;;;5103426;28;19904;-85
2021/05/22 14:11:45;;;;;;;2.65;0.85;;;18.90;68.60;;;;;;5104200;28;19904;-84
2021/05/22 14:14:12;;;;;;;1.75;0.30;;;18.50;70.80;;;;;;5104141;28;20024;-84